FNHU

Nova Lisboa Airport

Huambo, Angola
METAR FNHU 160600Z 27004KT 5000 BR FEW009 SCT070 19/17 Q1023
Observed Flight Rules
Dec-16 @ 06:00 UTC (48 minutes ago) Marginal Visual Flight Rules
Wind Visibility Clouds Conditions
270° at 4 knots 5,005 meters
  • Few at 900' AGL
  • Scattered at 7,000' AGL
  • Mist
Temperatures Readings
Current 19°C / 66°F
Dewpoint 17°C / 63°F
Humidity 88%
Altimeter 30.21" Hg
Pressure 1023 hPa
Elevation 1701
METAR FNHU 160600Z 27004KT 5000 BR FEW009 SCT070 19/17 Q1023
Observed Flight Rules
Dec-16 @ 06:00 UTC
(48 minutes ago)
MVFR
Wind Visibility
270° at 4 knots 5,005 meters
Clouds
  • Few at 900' AGL
  • Scattered at 7,000' AGL
Conditions
  • Mist
Temperature Dewpoint
19°C / 66°F 17°C / 63°F
Humidity Altimeter Pressure
88% 30.21" Hg 1023 hPa